sensor_id;sensor_type;location;lat;lon;timestamp;temperature;humidity
44843;DHT22;31884;52.538;13.820;2023-04-15T00:00:03;8.40;99.90
44843;DHT22;31884;52.538;13.820;2023-04-15T00:02:28;8.40;99.90
44843;DHT22;31884;52.538;13.820;2023-04-15T00:04:54;8.40;99.90
44843;DHT22;31884;52.538;13.820;2023-04-15T00:07:19;8.40;99.90
44843;DHT22;31884;52.538;13.820;2023-04-15T00:09:45;8.40;99.90
44843;DHT22;31884;52.538;13.820;2023-04-15T00:12:11;8.40;99.90
44843;DHT22;31884;52.538;13.820;2023-04-15T00:14:37;8.50;99.90
44843;DHT22;31884;52.538;13.820;2023-04-15T00:17:03;8.50;99.90
44843;DHT22;31884;52.538;13.820;2023-04-15T00:19:29;8.50;99.90
44843;DHT22;31884;52.538;13.820;2023-04-15T00:21:55;8.50;99.90
44843;DHT22;31884;52.538;13.820;2023-04-15T00:24:22;8.50;99.90
44843;DHT22;31884;52.538;13.820;2023-04-15T00:26:47;8.50;99.90
44843;DHT22;31884;52.538;13.820;2023-04-15T00:29:13;8.50;99.90
44843;DHT22;31884;52.538;13.820;2023-04-15T00:31:39;8.50;99.90
44843;DHT22;31884;52.538;13.820;2023-04-15T00:34:05;8.50;99.90
44843;DHT22;31884;52.538;13.820;2023-04-15T00:36:30;8.50;99.90
44843;DHT22;31884;52.538;13.820;2023-04-15T00:38:58;8.50;99.90
44843;DHT22;31884;52.538;13.820;2023-04-15T00:41:23;8.50;99.90
44843;DHT22;31884;52.538;13.820;2023-04-15T00:43:49;8.50;99.90
44843;DHT22;31884;52.538;13.820;2023-04-15T00:46:16;8.50;99.90
44843;DHT22;31884;52.538;13.820;2023-04-15T00:48:43;8.50;99.90
44843;DHT22;31884;52.538;13.820;2023-04-15T00:51:09;8.60;99.90
44843;DHT22;31884;52.538;13.820;2023-04-15T00:53:35;8.50;99.90
44843;DHT22;31884;52.538;13.820;2023-04-15T00:56:00;8.60;99.90
44843;DHT22;31884;52.538;13.820;2023-04-15T00:58:26;8.50;99.90
44843;DHT22;31884;52.538;13.820;2023-04-15T01:00:53;8.60;99.90
44843;DHT22;31884;52.538;13.820;2023-04-15T01:03:19;8.60;99.90
44843;DHT22;31884;52.538;13.820;2023-04-15T01:05:45;8.50;99.90
44843;DHT22;31884;52.538;13.820;2023-04-15T01:08:11;8.50;99.90
44843;DHT22;31884;52.538;13.820;2023-04-15T01:10:37;8.50;99.90
44843;DHT22;31884;52.538;13.820;2023-04-15T01:13:03;8.50;99.90
44843;DHT22;31884;52.538;13.820;2023-04-15T01:15:28;8.60;99.90
44843;DHT22;31884;52.538;13.820;2023-04-15T01:17:57;8.60;99.90
44843;DHT22;31884;52.538;13.820;2023-04-15T01:20:23;8.60;99.90
44843;DHT22;31884;52.538;13.820;2023-04-15T01:22:48;8.60;99.90
44843;DHT22;31884;52.538;13.820;2023-04-15T01:25:17;8.60;99.90
44843;DHT22;31884;52.538;13.820;2023-04-15T01:27:43;8.60;99.90
44843;DHT22;31884;52.538;13.820;2023-04-15T01:30:09;8.60;99.90
44843;DHT22;31884;52.538;13.820;2023-04-15T01:32:36;8.60;99.90
44843;DHT22;31884;52.538;13.820;2023-04-15T01:35:01;8.70;99.90
44843;DHT22;31884;52.538;13.820;2023-04-15T01:37:28;8.60;99.90
44843;DHT22;31884;52.538;13.820;2023-04-15T01:39:53;8.60;99.90
44843;DHT22;31884;52.538;13.820;2023-04-15T01:42:20;8.70;99.90
44843;DHT22;31884;52.538;13.820;2023-04-15T01:44:46;8.70;99.90
44843;DHT22;31884;52.538;13.820;2023-04-15T01:47:11;8.70;99.90
44843;DHT22;31884;52.538;13.820;2023-04-15T01:49:37;8.70;99.90
44843;DHT22;31884;52.538;13.820;2023-04-15T01:52:02;8.70;99.90
44843;DHT22;31884;52.538;13.820;2023-04-15T01:54:28;8.70;99.90
44843;DHT22;31884;52.538;13.820;2023-04-15T01:56:53;8.70;99.90
44843;DHT22;31884;52.538;13.820;2023-04-15T01:59:20;8.70;99.90
44843;DHT22;31884;52.538;13.820;2023-04-15T02:01:45;8.70;99.90
44843;DHT22;31884;52.538;13.820;2023-04-15T02:04:11;8.70;99.90
44843;DHT22;31884;52.538;13.820;2023-04-15T02:06:41;8.80;99.90
44843;DHT22;31884;52.538;13.820;2023-04-15T02:09:08;8.80;99.90
44843;DHT22;31884;52.538;13.820;2023-04-15T02:11:34;8.80;99.90
44843;DHT22;31884;52.538;13.820;2023-04-15T02:14:00;8.80;99.90
44843;DHT22;31884;52.538;13.820;2023-04-15T02:16:25;8.80;99.90
44843;DHT22;31884;52.538;13.820;2023-04-15T02:18:51;8.80;99.90
44843;DHT22;31884;52.538;13.820;2023-04-15T02:21:16;8.80;99.90
44843;DHT22;31884;52.538;13.820;2023-04-15T02:23:43;8.80;99.90
44843;DHT22;31884;52.538;13.820;2023-04-15T02:26:09;8.80;99.90
44843;DHT22;31884;52.538;13.820;2023-04-15T02:28:34;8.80;99.90
44843;DHT22;31884;52.538;13.820;2023-04-15T02:31:04;8.80;99.90
44843;DHT22;31884;52.538;13.820;2023-04-15T02:33:30;8.90;99.90
44843;DHT22;31884;52.538;13.820;2023-04-15T02:35:56;8.90;99.90
44843;DHT22;31884;52.538;13.820;2023-04-15T02:38:22;8.90;99.90
44843;DHT22;31884;52.538;13.820;2023-04-15T02:40:47;8.90;99.90
44843;DHT22;31884;52.538;13.820;2023-04-15T02:43:14;8.90;99.90
44843;DHT22;31884;52.538;13.820;2023-04-15T02:45:41;8.90;99.90
44843;DHT22;31884;52.538;13.820;2023-04-15T02:48:08;8.90;99.90
44843;DHT22;31884;52.538;13.820;2023-04-15T02:50:33;8.90;99.90
44843;DHT22;31884;52.538;13.820;2023-04-15T02:52:59;8.90;99.90
44843;DHT22;31884;52.538;13.820;2023-04-15T02:55:25;9.00;99.90
44843;DHT22;31884;52.538;13.820;2023-04-15T02:57:51;9.00;99.90
44843;DHT22;31884;52.538;13.820;2023-04-15T03:00:16;9.00;99.90
44843;DHT22;31884;52.538;13.820;2023-04-15T03:02:42;9.00;99.90
44843;DHT22;31884;52.538;13.820;2023-04-15T03:05:13;9.00;99.90
44843;DHT22;31884;52.538;13.820;2023-04-15T03:07:38;9.00;99.90
44843;DHT22;31884;52.538;13.820;2023-04-15T03:10:07;9.00;99.90
44843;DHT22;31884;52.538;13.820;2023-04-15T03:12:33;9.00;99.90
44843;DHT22;31884;52.538;13.820;2023-04-15T03:14:58;9.10;99.90
44843;DHT22;31884;52.538;13.820;2023-04-15T03:17:26;9.10;99.90
44843;DHT22;31884;52.538;13.820;2023-04-15T03:19:51;9.10;99.90
44843;DHT22;31884;52.538;13.820;2023-04-15T03:22:17;9.10;99.90
44843;DHT22;31884;52.538;13.820;2023-04-15T03:24:42;9.10;99.90
44843;DHT22;31884;52.538;13.820;2023-04-15T03:27:08;9.10;99.90
44843;DHT22;31884;52.538;13.820;2023-04-15T03:29:33;9.10;99.90
44843;DHT22;31884;52.538;13.820;2023-04-15T03:31:59;9.10;99.90
44843;DHT22;31884;52.538;13.820;2023-04-15T03:34:24;9.20;99.90
44843;DHT22;31884;52.538;13.820;2023-04-15T03:36:50;9.20;99.90
44843;DHT22;31884;52.538;13.820;2023-04-15T03:39:15;9.20;99.90
44843;DHT22;31884;52.538;13.820;2023-04-15T03:41:41;9.20;99.90
44843;DHT22;31884;52.538;13.820;2023-04-15T03:44:07;9.20;99.90
44843;DHT22;31884;52.538;13.820;2023-04-15T03:46:32;9.20;99.90
44843;DHT22;31884;52.538;13.820;2023-04-15T03:48:58;9.20;99.90
44843;DHT22;31884;52.538;13.820;2023-04-15T03:51:23;9.20;99.90
44843;DHT22;31884;52.538;13.820;2023-04-15T03:53:49;9.20;99.90
44843;DHT22;31884;52.538;13.820;2023-04-15T03:56:14;9.20;99.90
44843;DHT22;31884;52.538;13.820;2023-04-15T03:58:40;9.20;99.90
44843;DHT22;31884;52.538;13.820;2023-04-15T04:01:05;9.20;99.90
44843;DHT22;31884;52.538;13.820;2023-04-15T04:03:31;9.30;99.90
44843;DHT22;31884;52.538;13.820;2023-04-15T04:05:57;9.20;99.90
44843;DHT22;31884;52.538;13.820;2023-04-15T04:08:23;9.30;99.90
44843;DHT22;31884;52.538;13.820;2023-04-15T04:10:48;9.30;99.90
44843;DHT22;31884;52.538;13.820;2023-04-15T04:13:14;9.30;99.90
44843;DHT22;31884;52.538;13.820;2023-04-15T04:15:39;9.30;99.90
44843;DHT22;31884;52.538;13.820;2023-04-15T04:18:05;9.30;99.90
44843;DHT22;31884;52.538;13.820;2023-04-15T04:20:31;9.30;99.90
44843;DHT22;31884;52.538;13.820;2023-04-15T04:22:56;9.30;99.90
44843;DHT22;31884;52.538;13.820;2023-04-15T04:25:22;9.30;99.90
44843;DHT22;31884;52.538;13.820;2023-04-15T04:27:48;9.30;99.90
44843;DHT22;31884;52.538;13.820;2023-04-15T04:30:14;9.30;99.90
44843;DHT22;31884;52.538;13.820;2023-04-15T04:32:40;9.30;99.90
44843;DHT22;31884;52.538;13.820;2023-04-15T04:35:06;9.30;99.90
44843;DHT22;31884;52.538;13.820;2023-04-15T04:37:31;9.30;99.90
44843;DHT22;31884;52.538;13.820;2023-04-15T04:39:57;9.30;99.90
44843;DHT22;31884;52.538;13.820;2023-04-15T04:42:22;9.30;99.90
44843;DHT22;31884;52.538;13.820;2023-04-15T04:44:48;9.30;99.90
44843;DHT22;31884;52.538;13.820;2023-04-15T04:47:13;9.30;99.90
44843;DHT22;31884;52.538;13.820;2023-04-15T04:49:39;9.30;99.90
44843;DHT22;31884;52.538;13.820;2023-04-15T04:52:05;9.30;99.90
44843;DHT22;31884;52.538;13.820;2023-04-15T04:54:31;9.20;99.90
44843;DHT22;31884;52.538;13.820;2023-04-15T04:56:57;9.20;99.90
44843;DHT22;31884;52.538;13.820;2023-04-15T04:59:23;9.20;99.90
44843;DHT22;31884;52.538;13.820;2023-04-15T05:01:48;9.30;99.90
44843;DHT22;31884;52.538;13.820;2023-04-15T05:04:14;9.30;99.90
44843;DHT22;31884;52.538;13.820;2023-04-15T05:06:39;9.30;99.90
44843;DHT22;31884;52.538;13.820;2023-04-15T05:09:05;9.30;99.90
44843;DHT22;31884;52.538;13.820;2023-04-15T05:11:31;9.20;99.90
44843;DHT22;31884;52.538;13.820;2023-04-15T05:13:57;9.30;99.90
44843;DHT22;31884;52.538;13.820;2023-04-15T05:16:23;9.30;99.90
44843;DHT22;31884;52.538;13.820;2023-04-15T05:18:50;9.30;99.90
44843;DHT22;31884;52.538;13.820;2023-04-15T05:21:16;9.30;99.90
44843;DHT22;31884;52.538;13.820;2023-04-15T05:23:41;9.30;99.90
44843;DHT22;31884;52.538;13.820;2023-04-15T05:26:07;9.40;99.90
44843;DHT22;31884;52.538;13.820;2023-04-15T05:28:32;9.40;99.90
44843;DHT22;31884;52.538;13.820;2023-04-15T05:30:58;9.40;99.90
44843;DHT22;31884;52.538;13.820;2023-04-15T05:33:23;9.40;99.90
44843;DHT22;31884;52.538;13.820;2023-04-15T05:35:50;9.40;99.90
44843;DHT22;31884;52.538;13.820;2023-04-15T05:38:16;9.40;99.90
44843;DHT22;31884;52.538;13.820;2023-04-15T05:40:41;9.50;99.90
44843;DHT22;31884;52.538;13.820;2023-04-15T05:43:07;9.50;99.90
44843;DHT22;31884;52.538;13.820;2023-04-15T05:45:32;9.50;99.90
44843;DHT22;31884;52.538;13.820;2023-04-15T05:47:58;9.60;99.90
44843;DHT22;31884;52.538;13.820;2023-04-15T05:50:23;9.60;99.90
44843;DHT22;31884;52.538;13.820;2023-04-15T05:52:49;9.60;99.90
44843;DHT22;31884;52.538;13.820;2023-04-15T05:55:14;9.70;99.90
44843;DHT22;31884;52.538;13.820;2023-04-15T05:57:40;9.70;99.90
44843;DHT22;31884;52.538;13.820;2023-04-15T06:00:06;9.70;99.90
44843;DHT22;31884;52.538;13.820;2023-04-15T06:02:32;9.70;99.90
44843;DHT22;31884;52.538;13.820;2023-04-15T06:04:57;9.70;99.90
44843;DHT22;31884;52.538;13.820;2023-04-15T06:07:23;9.70;99.90
44843;DHT22;31884;52.538;13.820;2023-04-15T06:09:49;9.70;99.90
44843;DHT22;31884;52.538;13.820;2023-04-15T06:12:14;9.80;99.90
44843;DHT22;31884;52.538;13.820;2023-04-15T06:14:41;9.80;99.90
44843;DHT22;31884;52.538;13.820;2023-04-15T06:17:07;9.80;99.90
44843;DHT22;31884;52.538;13.820;2023-04-15T06:19:32;9.90;99.90
44843;DHT22;31884;52.538;13.820;2023-04-15T06:21:59;9.90;99.90
44843;DHT22;31884;52.538;13.820;2023-04-15T06:24:24;9.90;99.90
44843;DHT22;31884;52.538;13.820;2023-04-15T06:26:50;9.90;99.90
44843;DHT22;31884;52.538;13.820;2023-04-15T06:29:15;10.00;99.90
44843;DHT22;31884;52.538;13.820;2023-04-15T06:31:41;10.10;99.90
44843;DHT22;31884;52.538;13.820;2023-04-15T06:34:06;10.10;99.90
44843;DHT22;31884;52.538;13.820;2023-04-15T06:36:32;10.10;99.90
44843;DHT22;31884;52.538;13.820;2023-04-15T06:38:57;10.10;99.90
44843;DHT22;31884;52.538;13.820;2023-04-15T06:41:23;10.10;99.90
44843;DHT22;31884;52.538;13.820;2023-04-15T06:43:49;10.10;99.90
44843;DHT22;31884;52.538;13.820;2023-04-15T06:46:15;10.10;99.90
44843;DHT22;31884;52.538;13.820;2023-04-15T06:48:40;10.10;99.90
44843;DHT22;31884;52.538;13.820;2023-04-15T06:51:06;10.10;99.90
44843;DHT22;31884;52.538;13.820;2023-04-15T06:53:31;10.00;99.90
44843;DHT22;31884;52.538;13.820;2023-04-15T06:55:57;10.10;99.90
44843;DHT22;31884;52.538;13.820;2023-04-15T06:58:22;10.20;99.90
44843;DHT22;31884;52.538;13.820;2023-04-15T07:00:48;10.20;99.90
44843;DHT22;31884;52.538;13.820;2023-04-15T07:03:13;10.20;99.90
44843;DHT22;31884;52.538;13.820;2023-04-15T07:05:39;10.20;99.90
44843;DHT22;31884;52.538;13.820;2023-04-15T07:08:05;10.10;99.90
44843;DHT22;31884;52.538;13.820;2023-04-15T07:10:32;10.20;99.90
44843;DHT22;31884;52.538;13.820;2023-04-15T07:12:58;10.10;99.90
44843;DHT22;31884;52.538;13.820;2023-04-15T07:15:23;10.10;99.90
44843;DHT22;31884;52.538;13.820;2023-04-15T07:17:49;10.10;99.90
44843;DHT22;31884;52.538;13.820;2023-04-15T07:20:14;10.10;99.90
44843;DHT22;31884;52.538;13.820;2023-04-15T07:22:40;10.00;99.90
44843;DHT22;31884;52.538;13.820;2023-04-15T07:25:06;10.00;99.90
44843;DHT22;31884;52.538;13.820;2023-04-15T07:27:32;9.90;99.90
44843;DHT22;31884;52.538;13.820;2023-04-15T07:29:57;9.90;99.90
44843;DHT22;31884;52.538;13.820;2023-04-15T07:32:23;9.80;99.90
44843;DHT22;31884;52.538;13.820;2023-04-15T07:34:48;9.80;99.90
44843;DHT22;31884;52.538;13.820;2023-04-15T07:37:14;9.80;99.90
44843;DHT22;31884;52.538;13.820;2023-04-15T07:39:39;9.80;99.90
44843;DHT22;31884;52.538;13.820;2023-04-15T07:42:05;9.70;99.90
44843;DHT22;31884;52.538;13.820;2023-04-15T07:44:30;9.70;99.90
44843;DHT22;31884;52.538;13.820;2023-04-15T07:46:56;9.70;99.90
44843;DHT22;31884;52.538;13.820;2023-04-15T07:49:22;9.70;99.90
44843;DHT22;31884;52.538;13.820;2023-04-15T07:51:48;9.80;99.90
44843;DHT22;31884;52.538;13.820;2023-04-15T07:54:14;9.80;99.90
44843;DHT22;31884;52.538;13.820;2023-04-15T07:56:40;9.80;99.90
44843;DHT22;31884;52.538;13.820;2023-04-15T07:59:05;9.80;99.90
44843;DHT22;31884;52.538;13.820;2023-04-15T08:01:31;9.90;99.90
44843;DHT22;31884;52.538;13.820;2023-04-15T08:03:57;10.00;99.90
44843;DHT22;31884;52.538;13.820;2023-04-15T08:06:23;10.00;99.90
44843;DHT22;31884;52.538;13.820;2023-04-15T08:08:49;10.10;99.90
44843;DHT22;31884;52.538;13.820;2023-04-15T08:11:14;10.10;99.90
44843;DHT22;31884;52.538;13.820;2023-04-15T08:13:40;10.00;99.90
44843;DHT22;31884;52.538;13.820;2023-04-15T08:16:20;10.10;99.90
44843;DHT22;31884;52.538;13.820;2023-04-15T08:18:47;10.10;99.90
44843;DHT22;31884;52.538;13.820;2023-04-15T08:21:13;10.10;99.90
44843;DHT22;31884;52.538;13.820;2023-04-15T08:23:39;10.10;99.90
44843;DHT22;31884;52.538;13.820;2023-04-15T08:26:05;10.10;99.90
44843;DHT22;31884;52.538;13.820;2023-04-15T08:28:30;10.10;99.90
44843;DHT22;31884;52.538;13.820;2023-04-15T08:30:56;10.20;99.90
44843;DHT22;31884;52.538;13.820;2023-04-15T08:33:22;10.30;99.90
44843;DHT22;31884;52.538;13.820;2023-04-15T08:35:48;10.30;99.90
44843;DHT22;31884;52.538;13.820;2023-04-15T08:38:13;10.30;99.90
44843;DHT22;31884;52.538;13.820;2023-04-15T08:40:43;10.40;99.90
44843;DHT22;31884;52.538;13.820;2023-04-15T08:43:12;10.40;99.90
44843;DHT22;31884;52.538;13.820;2023-04-15T08:45:41;10.40;99.90
44843;DHT22;31884;52.538;13.820;2023-04-15T08:48:08;10.40;99.90
44843;DHT22;31884;52.538;13.820;2023-04-15T08:50:37;10.40;99.90
44843;DHT22;31884;52.538;13.820;2023-04-15T08:53:02;10.40;99.90
44843;DHT22;31884;52.538;13.820;2023-04-15T08:55:31;10.30;99.90
44843;DHT22;31884;52.538;13.820;2023-04-15T08:58:03;10.40;99.90
44843;DHT22;31884;52.538;13.820;2023-04-15T09:00:30;10.40;99.90
44843;DHT22;31884;52.538;13.820;2023-04-15T09:02:58;10.40;99.90
44843;DHT22;31884;52.538;13.820;2023-04-15T09:05:23;10.50;99.90
44843;DHT22;31884;52.538;13.820;2023-04-15T09:07:52;10.40;99.90
44843;DHT22;31884;52.538;13.820;2023-04-15T09:10:17;10.40;99.90
44843;DHT22;31884;52.538;13.820;2023-04-15T09:12:43;10.40;99.90
44843;DHT22;31884;52.538;13.820;2023-04-15T09:15:11;10.50;99.90
44843;DHT22;31884;52.538;13.820;2023-04-15T09:17:42;10.40;99.90
44843;DHT22;31884;52.538;13.820;2023-04-15T09:20:15;10.50;99.90
44843;DHT22;31884;52.538;13.820;2023-04-15T09:22:42;10.40;99.90
44843;DHT22;31884;52.538;13.820;2023-04-15T09:27:49;10.40;99.90
44843;DHT22;31884;52.538;13.820;2023-04-15T09:30:14;10.40;99.90
44843;DHT22;31884;52.538;13.820;2023-04-15T09:32:58;10.40;99.90
44843;DHT22;31884;52.538;13.820;2023-04-15T09:35:25;10.50;99.90
44843;DHT22;31884;52.538;13.820;2023-04-15T09:37:51;10.40;99.90
44843;DHT22;31884;52.538;13.820;2023-04-15T09:40:34;10.40;99.90
44843;DHT22;31884;52.538;13.820;2023-04-15T09:42:59;10.30;99.90
44843;DHT22;31884;52.538;13.820;2023-04-15T09:45:26;10.40;99.90
44843;DHT22;31884;52.538;13.820;2023-04-15T09:47:52;10.30;99.90
44843;DHT22;31884;52.538;13.820;2023-04-15T09:50:18;10.40;99.90
44843;DHT22;31884;52.538;13.820;2023-04-15T09:52:45;10.40;99.90
44843;DHT22;31884;52.538;13.820;2023-04-15T09:55:12;10.40;99.90
44843;DHT22;31884;52.538;13.820;2023-04-15T09:57:39;10.40;99.90
44843;DHT22;31884;52.538;13.820;2023-04-15T10:00:09;10.40;99.90
44843;DHT22;31884;52.538;13.820;2023-04-15T10:02:36;10.40;99.90
44843;DHT22;31884;52.538;13.820;2023-04-15T10:05:04;10.40;99.90
44843;DHT22;31884;52.538;13.820;2023-04-15T10:07:30;10.40;99.90
44843;DHT22;31884;52.538;13.820;2023-04-15T10:09:58;10.40;99.90
44843;DHT22;31884;52.538;13.820;2023-04-15T10:12:25;10.50;99.90
44843;DHT22;31884;52.538;13.820;2023-04-15T10:14:55;10.40;99.90
44843;DHT22;31884;52.538;13.820;2023-04-15T10:17:27;10.60;99.90
44843;DHT22;31884;52.538;13.820;2023-04-15T10:20:02;10.50;99.90
44843;DHT22;31884;52.538;13.820;2023-04-15T10:22:29;10.50;99.90
44843;DHT22;31884;52.538;13.820;2023-04-15T10:24:56;10.50;99.90
44843;DHT22;31884;52.538;13.820;2023-04-15T10:27:22;10.50;99.90
44843;DHT22;31884;52.538;13.820;2023-04-15T10:29:49;10.50;99.90
44843;DHT22;31884;52.538;13.820;2023-04-15T10:32:18;10.50;99.90
44843;DHT22;31884;52.538;13.820;2023-04-15T10:34:46;10.50;99.90
44843;DHT22;31884;52.538;13.820;2023-04-15T10:37:17;10.50;99.90
44843;DHT22;31884;52.538;13.820;2023-04-15T10:39:44;10.40;99.90
44843;DHT22;31884;52.538;13.820;2023-04-15T10:42:11;10.40;99.90
44843;DHT22;31884;52.538;13.820;2023-04-15T10:44:39;10.50;99.90
44843;DHT22;31884;52.538;13.820;2023-04-15T10:47:19;10.40;99.90
44843;DHT22;31884;52.538;13.820;2023-04-15T10:49:47;10.40;99.90
44843;DHT22;31884;52.538;13.820;2023-04-15T10:52:15;10.50;99.90
44843;DHT22;31884;52.538;13.820;2023-04-15T10:54:41;10.50;99.90
44843;DHT22;31884;52.538;13.820;2023-04-15T10:57:13;10.50;99.90
44843;DHT22;31884;52.538;13.820;2023-04-15T11:00:00;10.50;99.90
44843;DHT22;31884;52.538;13.820;2023-04-15T11:02:52;10.50;99.90
44843;DHT22;31884;52.538;13.820;2023-04-15T11:05:19;10.50;99.90
44843;DHT22;31884;52.538;13.820;2023-04-15T11:07:47;10.50;99.90
44843;DHT22;31884;52.538;13.820;2023-04-15T11:12:39;10.50;99.90
44843;DHT22;31884;52.538;13.820;2023-04-15T11:15:37;10.50;99.90
44843;DHT22;31884;52.538;13.820;2023-04-15T11:18:19;10.50;99.90
44843;DHT22;31884;52.538;13.820;2023-04-15T11:20:48;10.50;99.90
44843;DHT22;31884;52.538;13.820;2023-04-15T11:23:18;10.50;99.90
44843;DHT22;31884;52.538;13.820;2023-04-15T11:25:45;10.50;99.90
44843;DHT22;31884;52.538;13.820;2023-04-15T11:28:11;10.50;99.90
44843;DHT22;31884;52.538;13.820;2023-04-15T11:30:38;10.40;99.90
44843;DHT22;31884;52.538;13.820;2023-04-15T11:33:05;10.40;99.90
44843;DHT22;31884;52.538;13.820;2023-04-15T11:35:31;10.50;99.90
44843;DHT22;31884;52.538;13.820;2023-04-15T11:37:57;10.40;99.90
44843;DHT22;31884;52.538;13.820;2023-04-15T11:40:28;10.40;99.90
44843;DHT22;31884;52.538;13.820;2023-04-15T11:43:11;10.50;99.90
44843;DHT22;31884;52.538;13.820;2023-04-15T11:45:54;10.50;99.90
44843;DHT22;31884;52.538;13.820;2023-04-15T11:48:31;10.50;99.90
44843;DHT22;31884;52.538;13.820;2023-04-15T11:51:02;10.60;99.90
44843;DHT22;31884;52.538;13.820;2023-04-15T11:53:42;10.60;99.90
44843;DHT22;31884;52.538;13.820;2023-04-15T11:58:41;10.60;99.90
44843;DHT22;31884;52.538;13.820;2023-04-15T12:01:07;10.70;99.90
44843;DHT22;31884;52.538;13.820;2023-04-15T12:03:41;10.60;99.90
44843;DHT22;31884;52.538;13.820;2023-04-15T12:06:23;10.60;99.90
44843;DHT22;31884;52.538;13.820;2023-04-15T12:09:11;10.70;99.90
44843;DHT22;31884;52.538;13.820;2023-04-15T12:14:25;10.80;99.90
44843;DHT22;31884;52.538;13.820;2023-04-15T12:16:55;10.90;99.90
44843;DHT22;31884;52.538;13.820;2023-04-15T12:19:24;11.00;99.90
44843;DHT22;31884;52.538;13.820;2023-04-15T12:21:57;11.10;99.90
44843;DHT22;31884;52.538;13.820;2023-04-15T12:24:23;11.00;99.90
44843;DHT22;31884;52.538;13.820;2023-04-15T12:26:56;11.00;99.90
44843;DHT22;31884;52.538;13.820;2023-04-15T12:29:29;11.10;99.90
44843;DHT22;31884;52.538;13.820;2023-04-15T12:32:37;11.10;99.90
44843;DHT22;31884;52.538;13.820;2023-04-15T12:34:52;11.40;99.90
44843;DHT22;31884;52.538;13.820;2023-04-15T12:37:21;11.60;99.90
44843;DHT22;31884;52.538;13.820;2023-04-15T12:39:48;11.50;99.90
44843;DHT22;31884;52.538;13.820;2023-04-15T12:42:15;11.60;99.90
44843;DHT22;31884;52.538;13.820;2023-04-15T12:44:40;11.50;99.90
44843;DHT22;31884;52.538;13.820;2023-04-15T12:47:07;11.50;99.90
44843;DHT22;31884;52.538;13.820;2023-04-15T12:49:34;11.50;99.90
44843;DHT22;31884;52.538;13.820;2023-04-15T12:52:00;11.60;99.90
44843;DHT22;31884;52.538;13.820;2023-04-15T12:54:27;11.60;99.90
44843;DHT22;31884;52.538;13.820;2023-04-15T12:56:53;11.70;99.90
44843;DHT22;31884;52.538;13.820;2023-04-15T12:59:20;11.70;99.90
44843;DHT22;31884;52.538;13.820;2023-04-15T13:01:47;11.60;99.90
44843;DHT22;31884;52.538;13.820;2023-04-15T13:04:13;11.60;99.90
44843;DHT22;31884;52.538;13.820;2023-04-15T13:06:38;11.60;99.90
44843;DHT22;31884;52.538;13.820;2023-04-15T13:09:04;11.70;99.90
44843;DHT22;31884;52.538;13.820;2023-04-15T13:11:30;11.60;99.90
44843;DHT22;31884;52.538;13.820;2023-04-15T13:14:04;11.60;99.90
44843;DHT22;31884;52.538;13.820;2023-04-15T13:16:30;11.60;99.90
44843;DHT22;31884;52.538;13.820;2023-04-15T13:18:57;11.50;99.90
44843;DHT22;31884;52.538;13.820;2023-04-15T13:21:23;11.40;99.90
44843;DHT22;31884;52.538;13.820;2023-04-15T13:23:48;11.30;99.90
44843;DHT22;31884;52.538;13.820;2023-04-15T13:26:17;11.30;99.90
44843;DHT22;31884;52.538;13.820;2023-04-15T13:28:42;11.20;99.90
44843;DHT22;31884;52.538;13.820;2023-04-15T13:31:08;11.20;99.90
44843;DHT22;31884;52.538;13.820;2023-04-15T13:33:33;11.30;99.90
44843;DHT22;31884;52.538;13.820;2023-04-15T13:35:59;11.20;99.90
44843;DHT22;31884;52.538;13.820;2023-04-15T13:38:25;11.20;99.90
44843;DHT22;31884;52.538;13.820;2023-04-15T13:40:50;11.10;99.90
44843;DHT22;31884;52.538;13.820;2023-04-15T13:43:16;11.20;99.90
44843;DHT22;31884;52.538;13.820;2023-04-15T13:45:42;11.20;99.90
44843;DHT22;31884;52.538;13.820;2023-04-15T13:48:08;11.30;99.90
44843;DHT22;31884;52.538;13.820;2023-04-15T13:50:33;11.30;99.90
44843;DHT22;31884;52.538;13.820;2023-04-15T13:52:59;11.20;99.90
44843;DHT22;31884;52.538;13.820;2023-04-15T13:55:25;11.20;99.90
44843;DHT22;31884;52.538;13.820;2023-04-15T13:57:50;11.20;99.90
44843;DHT22;31884;52.538;13.820;2023-04-15T14:00:16;11.20;99.90
44843;DHT22;31884;52.538;13.820;2023-04-15T14:02:42;11.30;99.90
44843;DHT22;31884;52.538;13.820;2023-04-15T14:05:09;11.30;99.90
44843;DHT22;31884;52.538;13.820;2023-04-15T14:07:36;11.40;99.90
44843;DHT22;31884;52.538;13.820;2023-04-15T14:10:01;11.50;99.90
44843;DHT22;31884;52.538;13.820;2023-04-15T14:12:27;11.60;99.90
44843;DHT22;31884;52.538;13.820;2023-04-15T14:14:53;11.70;99.90
44843;DHT22;31884;52.538;13.820;2023-04-15T14:17:18;11.70;99.90
44843;DHT22;31884;52.538;13.820;2023-04-15T14:19:44;11.70;99.90
44843;DHT22;31884;52.538;13.820;2023-04-15T14:22:09;11.70;99.90
44843;DHT22;31884;52.538;13.820;2023-04-15T14:24:35;11.70;99.90
44843;DHT22;31884;52.538;13.820;2023-04-15T14:27:00;11.70;99.90
44843;DHT22;31884;52.538;13.820;2023-04-15T14:29:26;11.80;99.90
44843;DHT22;31884;52.538;13.820;2023-04-15T14:31:52;11.70;99.90
44843;DHT22;31884;52.538;13.820;2023-04-15T14:34:17;11.70;99.90
44843;DHT22;31884;52.538;13.820;2023-04-15T14:36:43;11.60;99.90
44843;DHT22;31884;52.538;13.820;2023-04-15T14:39:09;11.60;99.90
44843;DHT22;31884;52.538;13.820;2023-04-15T14:41:35;11.50;99.90
44843;DHT22;31884;52.538;13.820;2023-04-15T14:44:00;11.60;99.90
44843;DHT22;31884;52.538;13.820;2023-04-15T14:46:26;11.70;99.90
44843;DHT22;31884;52.538;13.820;2023-04-15T14:48:52;11.70;99.90
44843;DHT22;31884;52.538;13.820;2023-04-15T14:51:17;11.70;99.90
44843;DHT22;31884;52.538;13.820;2023-04-15T14:53:44;11.80;99.90
44843;DHT22;31884;52.538;13.820;2023-04-15T14:56:10;11.60;99.90
44843;DHT22;31884;52.538;13.820;2023-04-15T14:58:35;11.60;99.90
44843;DHT22;31884;52.538;13.820;2023-04-15T15:01:02;11.60;99.90
44843;DHT22;31884;52.538;13.820;2023-04-15T15:03:28;11.70;99.90
44843;DHT22;31884;52.538;13.820;2023-04-15T15:05:53;11.80;99.90
44843;DHT22;31884;52.538;13.820;2023-04-15T15:08:19;11.80;99.90
44843;DHT22;31884;52.538;13.820;2023-04-15T15:10:45;11.80;99.90
44843;DHT22;31884;52.538;13.820;2023-04-15T15:13:10;11.80;99.90
44843;DHT22;31884;52.538;13.820;2023-04-15T15:15:37;11.90;99.90
44843;DHT22;31884;52.538;13.820;2023-04-15T15:18:02;11.90;99.90
44843;DHT22;31884;52.538;13.820;2023-04-15T15:20:28;12.00;99.90
44843;DHT22;31884;52.538;13.820;2023-04-15T15:22:55;12.00;99.90
44843;DHT22;31884;52.538;13.820;2023-04-15T15:25:20;12.00;99.90
44843;DHT22;31884;52.538;13.820;2023-04-15T15:27:46;12.00;99.90
44843;DHT22;31884;52.538;13.820;2023-04-15T15:30:12;11.90;99.90